Alfred, North Dakota
Current Conditions -  °F | °C
As of 4:56 AM on Tuesday 21 Oct 2014 (Local Time) from KJMS Reporting Station
Clear Clear  
Wind Chill: 40°   Ceiling: Unl
Heat Index: 46°   Visibility: 10mi
Dew Point: 38°   Wind: 14mph
Humidity: 73%   Direction: 140°SE
Pressure: 29.96"   Gusts: NA
Location:  46.4882°N, 98.8135°W
Report Text: KJMS 210956Z AUTO 14012KT 10SM CLR 08/03 A2996 RMK AO2 SLP149 T00780033
Loading
Personal Weather Stations






























Interactive Weather Map
Tropical Storm Tracking
New forecast layout! Learn more

10-Day Weather Forecast

Advertisements
Track Severe Weather on mobile